createdAt,value
2019-01-24T00:03:54.175Z,96735.62
2019-01-24T00:07:58.882Z,96733.95
2019-01-24T00:12:03.582Z,96751.48
2019-01-24T00:16:09.375Z,96752.34
2019-01-24T00:20:16.049Z,96751.52
2019-01-24T00:24:20.744Z,96753.19
2019-01-24T00:28:25.447Z,96757.74
2019-01-24T00:32:31.219Z,96756.03
2019-01-24T00:36:35.913Z,96764.57
2019-01-24T00:40:40.612Z,96768.38
2019-01-24T00:44:45.322Z,96782.89
2019-01-24T00:48:51.096Z,96792.78
2019-01-24T00:52:55.794Z,96785.92
2019-01-24T00:57:00.485Z,96792.32
2019-01-24T01:01:05.176Z,96796.98
2019-01-24T01:05:11.914Z,96796.06
2019-01-24T01:09:16.612Z,96801.50
2019-01-24T01:13:21.312Z,96810.54
2019-01-24T01:17:26.010Z,96815.23
2019-01-24T01:21:30.704Z,96817.83
2019-01-24T01:25:35.406Z,96818.69
2019-01-24T01:29:40.111Z,96825.55
2019-01-24T01:33:44.814Z,96834.95
2019-01-24T01:37:49.502Z,96840.47
2019-01-24T01:41:54.204Z,96853.77
2019-01-24T01:45:58.900Z,96862.33
2019-01-24T01:50:06.198Z,96854.67
2019-01-24T01:54:10.903Z,96858.06
2019-01-24T01:58:15.589Z,96859.77
2019-01-24T02:02:20.282Z,96863.61
2019-01-24T02:06:24.977Z,96865.30
2019-01-24T02:10:29.686Z,96860.08
2019-01-24T02:14:34.391Z,96855.84
2019-01-24T02:18:39.082Z,96860.63
2019-01-24T02:22:43.786Z,96864.09
2019-01-24T02:26:48.480Z,96858.25
2019-01-24T02:30:53.178Z,96873.21
2019-01-24T02:34:57.861Z,96871.52
2019-01-24T02:39:02.562Z,96882.23
2019-01-24T02:43:08.335Z,96887.75
2019-01-24T02:47:13.035Z,96892.91
2019-01-24T02:51:17.740Z,96894.19
2019-01-24T02:55:22.431Z,96902.31
2019-01-24T02:59:27.134Z,96903.22
2019-01-24T03:03:31.826Z,96909.19
2019-01-24T03:07:36.521Z,96918.56
2019-01-24T03:11:41.216Z,96914.69
2019-01-24T03:15:45.906Z,96915.97
2019-01-24T03:19:50.601Z,96906.16
2019-01-24T03:23:55.298Z,96903.61
2019-01-24T03:28:00.003Z,96915.96
2019-01-24T03:32:04.701Z,96911.69
2019-01-24T03:36:09.397Z,96920.63
2019-01-24T03:40:16.005Z,96931.27
2019-01-24T03:44:20.705Z,96930.02
2019-01-24T03:48:25.415Z,96936.48
2019-01-24T03:52:30.108Z,96935.17
2019-01-24T03:56:34.811Z,96936.31
2019-01-24T04:00:39.513Z,96938.00
2019-01-24T04:04:44.208Z,96935.97
2019-01-24T04:08:48.909Z,96941.12
2019-01-24T04:12:53.615Z,96940.66
2019-01-24T04:16:58.307Z,96944.89
2019-01-24T04:21:03.010Z,96957.71
2019-01-24T04:25:08.253Z,96950.84
2019-01-24T04:29:12.949Z,96952.97
2019-01-24T04:33:17.638Z,96949.14
2019-01-24T04:37:22.334Z,96953.39
2019-01-24T04:41:28.203Z,96953.41
2019-01-24T04:45:32.911Z,96950.92
2019-01-24T04:49:37.614Z,96959.87
2019-01-24T04:53:42.303Z,96956.06
2019-01-24T04:57:47.076Z,96961.22
2019-01-24T05:01:51.783Z,96967.18
2019-01-24T05:05:56.483Z,96971.86
2019-01-24T05:10:02.323Z,96978.28
2019-01-24T05:14:07.144Z,96971.03
2019-01-24T05:18:11.846Z,96977.86
2019-01-24T05:22:16.548Z,96983.41
2019-01-24T05:26:21.245Z,96982.14
2019-01-24T05:30:26.315Z,96987.66
2019-01-24T05:34:31.007Z,96991.08
2019-01-24T05:38:35.704Z,96997.46
2019-01-24T05:42:40.403Z,96993.64
2019-01-24T05:46:45.107Z,97003.02
2019-01-24T05:50:49.809Z,97011.95
2019-01-24T05:54:54.502Z,97020.90
2019-01-24T05:58:59.203Z,97021.77
2019-01-24T06:03:04.668Z,97031.97
2019-01-24T06:07:09.376Z,97041.78
2019-01-24T06:11:14.069Z,97045.20
2019-01-24T06:15:18.830Z,97054.58
2019-01-24T06:19:23.539Z,97067.80
2019-01-24T06:23:28.229Z,97065.27
2019-01-24T06:27:33.999Z,97072.48
2019-01-24T06:31:38.703Z,97074.63
2019-01-24T06:35:48.695Z,97075.89
2019-01-24T06:39:51.389Z,97081.87
2019-01-24T06:43:56.089Z,97089.56
2019-01-24T06:48:00.787Z,97089.56
2019-01-24T06:52:05.492Z,97093.38
2019-01-24T06:56:10.190Z,97092.97
2019-01-24T07:00:17.029Z,97090.38
2019-01-24T07:04:21.730Z,97094.69
2019-01-24T07:08:26.425Z,97107.48
2019-01-24T07:12:31.126Z,97107.89
2019-01-24T07:16:36.787Z,97113.43
2019-01-24T07:20:41.491Z,97116.00
2019-01-24T07:24:46.190Z,97117.28
2019-01-24T07:28:50.889Z,97113.87
2019-01-24T07:32:55.586Z,97114.27
2019-01-24T07:37:00.341Z,97125.34
2019-01-24T07:41:05.051Z,97129.19
2019-01-24T07:45:12.797Z,97139.85
2019-01-24T07:49:17.490Z,97147.54
2019-01-24T07:53:22.190Z,97144.54
2019-01-24T07:57:28.523Z,97157.35
2019-01-24T08:01:33.225Z,97165.05
2019-01-24T08:05:38.014Z,97160.78
2019-01-24T08:09:42.705Z,97159.09
2019-01-24T08:13:47.418Z,97157.39
2019-01-24T08:17:52.105Z,97156.11
2019-01-24T08:21:57.870Z,97166.77
2019-01-24T08:26:02.572Z,97176.14
2019-01-24T08:30:10.533Z,97180.84
2019-01-24T08:34:15.237Z,97175.28
2019-01-24T08:38:19.941Z,97171.44
2019-01-24T08:42:24.639Z,97179.97
2019-01-24T08:46:29.353Z,97189.80
2019-01-24T08:50:35.025Z,97188.11
2019-01-24T08:54:39.734Z,97187.25
2019-01-24T08:58:44.423Z,97188.06
2019-01-24T09:02:49.657Z,97199.59
2019-01-24T09:06:54.360Z,97203.84
2019-01-24T09:10:59.056Z,97203.84
2019-01-24T09:15:08.371Z,97205.16
2019-01-24T09:19:13.058Z,97208.09
2019-01-24T09:23:17.756Z,97211.93
2019-01-24T09:27:22.470Z,97215.76
2019-01-24T09:31:27.175Z,97228.95
2019-01-24T09:35:31.864Z,97236.19
2019-01-24T09:39:36.557Z,97235.76
2019-01-24T09:43:41.249Z,97239.59
2019-01-24T09:47:45.951Z,97248.58
2019-01-24T09:51:50.661Z,97251.95
2019-01-24T09:55:55.361Z,97257.50
2019-01-24T10:00:00.047Z,97260.88
2019-01-24T10:04:04.745Z,97263.42
2019-01-24T10:08:09.444Z,97267.75
2019-01-24T10:12:14.148Z,97268.58
2019-01-24T10:16:18.846Z,97270.20
2019-01-24T10:20:25.478Z,97272.77
2019-01-24T10:24:30.178Z,97271.88
2019-01-24T10:28:34.874Z,97271.41
2019-01-24T10:32:39.569Z,97272.72
2019-01-24T10:36:44.280Z,97281.19
2019-01-24T10:40:48.967Z,97273.48
2019-01-24T10:44:53.671Z,97279.80
2019-01-24T10:48:58.372Z,97273.77
2019-01-24T10:53:03.077Z,97270.28
2019-01-24T10:57:07.776Z,97276.58
2019-01-24T11:01:12.471Z,97272.65
2019-01-24T11:05:18.906Z,97271.40
2019-01-24T11:09:23.604Z,97267.44
2019-01-24T11:13:28.304Z,97272.58
2019-01-24T11:17:33.007Z,97265.72
2019-01-24T11:21:37.695Z,97264.08
2019-01-24T11:25:42.393Z,97271.04
2019-01-24T11:29:47.091Z,97263.69
2019-01-24T11:33:51.789Z,97257.19
2019-01-24T11:37:56.493Z,97268.68
2019-01-24T11:42:01.180Z,97250.25
2019-01-24T11:46:07.218Z,97245.97
2019-01-24T11:50:16.590Z,97241.17
2019-01-24T11:54:21.295Z,97237.83
2019-01-24T11:58:25.996Z,97243.00
2019-01-24T12:02:30.695Z,97246.05
2019-01-24T12:06:35.395Z,97254.27
2019-01-24T12:10:40.161Z,97247.52
2019-01-24T12:14:44.860Z,97244.09
2019-01-24T12:18:49.556Z,97244.45
2019-01-24T12:22:54.245Z,97249.94
2019-01-24T12:26:58.937Z,97247.72
2019-01-24T12:31:03.645Z,97247.68
2019-01-24T12:35:09.681Z,97245.53
2019-01-24T12:39:14.377Z,97245.15
2019-01-24T12:43:19.061Z,97243.40
2019-01-24T12:47:23.764Z,97246.47
2019-01-24T12:51:28.469Z,97250.05
2019-01-24T12:55:34.130Z,97246.70
2019-01-24T12:59:38.825Z,97247.95
2019-01-24T13:03:43.819Z,97251.27
2019-01-24T13:07:48.517Z,97254.80
2019-01-24T13:11:53.216Z,97257.83
2019-01-24T13:15:57.918Z,97262.51
2019-01-24T13:20:02.613Z,97267.69
2019-01-24T13:24:07.306Z,97262.94
2019-01-24T13:28:11.996Z,97262.44
2019-01-24T13:32:16.708Z,97263.19
2019-01-24T13:36:21.406Z,97270.04
2019-01-24T13:40:28.801Z,97270.51
2019-01-24T13:44:33.510Z,97274.50
2019-01-24T13:48:38.206Z,97284.35
2019-01-24T13:52:42.900Z,97283.95
2019-01-24T13:56:47.597Z,97290.81
2019-01-24T14:00:52.292Z,97294.20
2019-01-24T14:04:56.983Z,97291.08
2019-01-24T14:09:01.685Z,97288.47
2019-01-24T14:13:06.383Z,97297.53
2019-01-24T14:17:11.087Z,97300.66
2019-01-24T14:21:15.786Z,97304.08
2019-01-24T14:25:21.279Z,97301.55
2019-01-24T14:29:25.982Z,97300.72
2019-01-24T14:33:30.676Z,97302.45
2019-01-24T14:37:39.798Z,97307.99
2019-01-24T14:41:41.773Z,97313.59
2019-01-24T14:45:46.457Z,97314.84
2019-01-24T14:49:51.165Z,97320.88
2019-01-24T14:53:55.863Z,97322.16
2019-01-24T14:58:00.575Z,97334.09
2019-01-24T15:02:05.331Z,97333.16
2019-01-24T15:06:10.019Z,97335.75
2019-01-24T15:10:15.459Z,97341.32
2019-01-24T15:14:20.152Z,97340.09
2019-01-24T15:18:24.852Z,97341.78
2019-01-24T15:22:29.549Z,97345.69
2019-01-24T15:26:35.084Z,97343.56
2019-01-24T15:30:39.786Z,97347.85
2019-01-24T15:34:44.478Z,97352.53
2019-01-24T15:38:49.176Z,97352.97
2019-01-24T15:42:53.896Z,97352.91
2019-01-24T15:46:58.581Z,97356.74
2019-01-24T15:51:03.284Z,97359.71
2019-01-24T15:55:08.626Z,97364.39
2019-01-24T15:59:13.318Z,97369.51
2019-01-24T16:03:18.029Z,97369.08
2019-01-24T16:07:22.727Z,97372.11
2019-01-24T16:11:27.430Z,97373.82
2019-01-24T16:15:34.272Z,97379.82
2019-01-24T16:19:38.967Z,97389.27
2019-01-24T16:23:43.667Z,97383.27
2019-01-24T16:27:48.354Z,97394.44
2019-01-24T16:31:53.053Z,97402.15
2019-01-24T16:35:57.764Z,97411.56
2019-01-24T16:40:02.467Z,97419.30
2019-01-24T16:44:07.165Z,97419.31
2019-01-24T16:48:11.883Z,97423.55
2019-01-24T16:52:16.570Z,97428.19
2019-01-24T16:56:21.269Z,97423.44
2019-01-24T17:00:29.230Z,97433.33
2019-01-24T17:04:33.921Z,97440.20
2019-01-24T17:08:38.622Z,97438.52
2019-01-24T17:12:43.311Z,97444.98
2019-01-24T17:16:48.012Z,97449.67
2019-01-24T17:20:52.708Z,97453.53
2019-01-24T17:24:57.410Z,97454.81
2019-01-24T17:29:02.283Z,97462.09
2019-01-24T17:33:06.982Z,97458.71
2019-01-24T17:37:11.670Z,97464.27
2019-01-24T17:41:16.371Z,97462.14
2019-01-24T17:45:21.073Z,97468.11
2019-01-24T17:49:26.842Z,97470.64
2019-01-24T17:53:31.551Z,97471.48
2019-01-24T17:57:36.243Z,97473.96
2019-01-24T18:01:40.942Z,97477.17
2019-01-24T18:05:45.639Z,97484.50
2019-01-24T18:09:50.341Z,97488.03
2019-01-24T18:13:55.032Z,97491.53
2019-01-24T18:17:59.733Z,97492.81
2019-01-24T18:22:04.603Z,97490.63
2019-01-24T18:26:09.305Z,97498.75
2019-01-24T18:30:25.514Z,97500.89
2019-01-24T18:34:30.198Z,97501.34
2019-01-24T18:38:38.572Z,97508.18
2019-01-24T18:42:41.308Z,97505.16
2019-01-24T18:46:46.009Z,97514.61
2019-01-24T18:50:50.772Z,97517.18
2019-01-24T18:54:55.456Z,97517.68
2019-01-24T18:59:00.162Z,97523.70
2019-01-24T19:03:06.207Z,97522.37
2019-01-24T19:07:10.901Z,97532.25
2019-01-24T19:11:17.299Z,97532.72
2019-01-24T19:15:23.432Z,97536.19
2019-01-24T19:19:28.128Z,97535.78
2019-01-24T19:23:32.830Z,97539.22
2019-01-24T19:27:37.526Z,97547.36
2019-01-24T19:31:42.224Z,97542.64
2019-01-24T19:35:46.918Z,97549.08
2019-01-24T19:39:51.616Z,97555.48
2019-01-24T19:43:56.311Z,97559.76
2019-01-24T19:48:01.005Z,97559.35
2019-01-24T19:52:05.701Z,97567.09
2019-01-24T19:56:10.387Z,97570.09
2019-01-24T20:00:20.700Z,97572.27
2019-01-24T20:04:25.394Z,97579.97
2019-01-24T20:08:30.092Z,97588.09
2019-01-24T20:12:34.796Z,97589.81
2019-01-24T20:16:39.487Z,97592.79
2019-01-24T20:20:44.185Z,97593.67
2019-01-24T20:24:48.883Z,97597.94
2019-01-24T20:28:53.588Z,97609.94
2019-01-24T20:32:59.541Z,97605.23
2019-01-24T20:37:04.233Z,97609.95
2019-01-24T20:41:08.924Z,97615.91
2019-01-24T20:45:13.789Z,97606.53
2019-01-24T20:49:19.557Z,97610.78
2019-01-24T20:53:24.258Z,97606.52
2019-01-24T20:57:28.944Z,97606.92
2019-01-24T21:01:33.653Z,97610.36
2019-01-24T21:05:38.332Z,97612.50
2019-01-24T21:09:43.028Z,97617.20
2019-01-24T21:13:47.726Z,97612.09
2019-01-24T21:17:52.488Z,97617.64
2019-01-24T21:21:57.185Z,97615.08
2019-01-24T21:26:01.885Z,97615.94
2019-01-24T21:30:12.637Z,97612.50
2019-01-24T21:34:17.338Z,97614.20
2019-01-24T21:38:22.284Z,97614.23
2019-01-24T21:42:26.978Z,97620.66
2019-01-24T21:46:31.679Z,97620.63
2019-01-24T21:50:36.378Z,97616.80
2019-01-24T21:54:42.140Z,97618.92
2019-01-24T21:58:46.828Z,97615.50
2019-01-24T22:02:51.525Z,97612.50
2019-01-24T22:06:56.288Z,97615.91
2019-01-24T22:11:00.916Z,97627.91
2019-01-24T22:15:09.003Z,97622.76
2019-01-24T22:19:13.703Z,97620.19
2019-01-24T22:23:18.399Z,97616.34
2019-01-24T22:27:23.104Z,97623.20
2019-01-24T22:31:27.799Z,97628.78
2019-01-24T22:35:32.488Z,97631.77
2019-01-24T22:39:37.184Z,97630.48
2019-01-24T22:43:41.886Z,97636.03
2019-01-24T22:47:46.652Z,97635.18
2019-01-24T22:51:51.347Z,97630.92
2019-01-24T22:55:56.038Z,97635.62
2019-01-24T23:00:00.739Z,97637.33
2019-01-24T23:04:07.278Z,97642.48
2019-01-24T23:08:11.981Z,97643.75
2019-01-24T23:12:16.669Z,97641.20
2019-01-24T23:16:21.352Z,97644.19
2019-01-24T23:20:26.053Z,97645.03
2019-01-24T23:24:31.725Z,97643.33
2019-01-24T23:28:36.417Z,97645.03
2019-01-24T23:32:41.117Z,97645.47
2019-01-24T23:36:45.812Z,97651.47
2019-01-24T23:40:52.134Z,97652.73
2019-01-24T23:44:56.830Z,97648.42
2019-01-24T23:49:01.530Z,97654.42
2019-01-24T23:53:06.234Z,97657.44
2019-01-24T23:57:10.921Z,97663.03
